| time (UTC) | temp C | wind direction | speed KPH | gust KPH | rain 1hr cm | rain 24hr cm | rain mn cm | humidity % | barometer mb |
| 20260510094852 | 6 | 254 | 0.0 | 0.0 | 0.00 | 0.33 | 0.30 | 63 | 1006.6 |
| 20260510093852 | 6 | 254 | 0.0 | 1.6 | 0.00 | 0.33 | 0.30 | 64 | 1006.4 |
| 20260510092852 | 6 | 254 | 0.0 | 3.2 | 0.00 | 0.33 | 0.30 | 64 | 1006.2 |
| 20260510090851 | 6 | 260 | 0.0 | 3.2 | 0.00 | 0.33 | 0.30 | 63 | 1006.2 |
| 20260510085851 | 7 | 260 | 0.0 | 0.0 | 0.00 | 0.33 | 0.30 | 62 | 1006.5 |
| 20260510084851 | 7 | 260 | 0.0 | 3.2 | 0.00 | 0.33 | 0.30 | 61 | 1006.6 |
| 20260510083851 | 7 | 260 | 0.0 | 3.2 | 0.00 | 0.33 | 0.30 | 61 | 1006.5 |
| 20260510082852 | 7 | 254 | 0.0 | 6.4 | 0.00 | 0.33 | 0.30 | 62 | 1006.6 |
| 20260510081851 | 6 | 194 | 0.0 | 3.2 | 0.00 | 0.33 | 0.30 | 63 | 1006.2 |
| 20260510080851 | 7 | 347 | 0.0 | 0.0 | 0.00 | 0.33 | 0.30 | 64 | 1006.3 |
| 20260510075852 | 7 | 347 | 0.0 | 4.8 | 0.00 | 0.33 | 0.30 | 62 | 1006.3 |
| 20260510074851 | 7 | 355 | 1.6 | 3.2 | 0.00 | 0.33 | 0.30 | 64 | 1006.1 |
| 20260510073951 | 7 | 5 | 0.0 | 0.0 | 0.00 | 0.33 | 0.30 | 63 | 1005.9 |
| 20260510071851 | 8 | 5 | 0.0 | 0.0 | 0.00 | 0.33 | 0.30 | 61 | 1006.4 |
| 20260510070851 | 8 | 5 | 0.0 | 0.0 | 0.03 | 0.33 | 0.30 | 61 | 1006.8 |
| 20260510065851 | 8 | 5 | 0.0 | 3.2 | 0.08 | 0.33 | 0.30 | 61 | 1006.9 |
| 20260510063851 | 8 | 257 | 0.0 | 1.6 | 0.10 | 0.33 | 0.30 | 61 | 1006.9 |
| 20260510061851 | 8 | 257 | 0.0 | 3.2 | 0.15 | 0.33 | 0.30 | 62 | 1006.9 |
| 20260510060851 | 8 | 257 | 0.0 | 3.2 | 0.15 | 0.30 | 0.28 | 62 | 1007.0 |
| 20260510054851 | 8 | 257 | 0.0 | 3.2 | 0.20 | 0.25 | 0.23 | 62 | 1007.2 |
| 20260510053851 | 8 | 257 | 0.0 | 3.2 | 0.20 | 0.23 | 0.20 | 62 | 1007.2 |
| 20260510052851 | 8 | 257 | 0.0 | 3.2 | 0.18 | 0.20 | 0.18 | 62 | 1007.1 |
| 20260510051851 | 8 | 289 | 0.0 | 3.2 | 0.15 | 0.18 | 0.15 | 63 | 1007.1 |
| 20260510050852 | 8 | 284 | 0.0 | 3.2 | 0.13 | 0.15 | 0.13 | 63 | 1006.9 |
| 20260510044851 | 8 | 287 | 0.0 | 6.4 | 0.03 | 0.05 | 0.03 | 64 | 1007.0 |
| 20260510043921 | 8 | 239 | 1.6 | 6.4 | 0.00 | 0.03 | 0.00 | 64 | 1006.7 |
| 20260510041851 | 8 | 239 | 0.0 | 6.4 | 0.00 | 0.03 | 0.00 | 63 | 1006.8 |
| 20260510040851 | 8 | 187 | 0.0 | 4.8 | 0.00 | 0.03 | 0.00 | 63 | 1006.8 |
| 20260510035851 | 8 | 277 | 0.0 | 6.4 | 0.00 | 0.03 | 0.00 | 64 | 1006.7 |
| 20260510034851 | 8 | 69 | 0.0 | 4.8 | 0.00 | 0.03 | 0.03 | 64 | 1006.8 |
| 20260510033851 | 8 | 292 | 0.0 | 3.2 | 0.00 | 0.03 | 0.03 | 64 | 1006.7 |
| 20260510032851 | 8 | 291 | 0.0 | 4.8 | 0.00 | 0.03 | 0.03 | 62 | 1006.4 |
| 20260510031851 | 8 | 276 | 0.0 | 8.0 | 0.00 | 0.03 | 0.03 | 61 | 1006.2 |
| 20260510030851 | 8 | 157 | 4.8 | 11.3 | 0.00 | 0.03 | 0.03 | 61 | 1006.1 |
| 20260510025851 | 8 | 102 | 6.4 | 8.0 | 0.00 | 0.03 | 0.03 | 62 | 1006.3 |
| 20260510024851 | 7 | 182 | 0.0 | 3.2 | 0.00 | 0.03 | 0.03 | 63 | 1006.4 |
| 20260510023850 | 7 | 182 | 3.2 | 3.2 | 0.00 | 0.03 | 0.03 | 63 | 1006.7 |
| 20260510022851 | 8 | 197 | 0.0 | 3.2 | 0.00 | 0.03 | 0.03 | 62 | 1007.0 |
| 20260510021851 | 8 | 197 | 0.0 | 3.2 | 0.00 | 0.03 | 0.03 | 62 | 1006.6 |
| 20260510020851 | 7 | 197 | 0.0 | 1.6 | 0.00 | 0.03 | 0.03 | 63 | 1006.6 |
| 20260510015851 | 7 | 197 | 0.0 | 1.6 | 0.00 | 0.03 | 0.03 | 63 | 1006.8 |
| 20260510014851 | 7 | 197 | 0.0 | 3.2 | 0.00 | 0.03 | 0.03 | 63 | 1006.9 |
| 20260510012851 | 7 | 197 | 0.0 | 1.6 | 0.00 | 0.03 | 0.03 | 64 | 1006.8 |
| 20260510011851 | 7 | 197 | 0.0 | 0.0 | 0.00 | 0.03 | 0.03 | 64 | 1006.7 |
| 20260510010851 | 7 | 197 | 0.0 | 1.6 | 0.00 | 0.03 | 0.03 | 64 | 1006.5 |
| 20260510005851 | 7 | 197 | 0.0 | 1.6 | 0.00 | 0.03 | 0.03 | 64 | 1006.7 |
| 20260510004851 | 7 | 197 | 0.0 | 1.6 | 0.00 | 0.03 | 0.03 | 64 | 1006.2 |
| 20260510003851 | 7 | 197 | 0.0 | 1.6 | 0.00 | 0.03 | 0.03 | 64 | 1006.3 |
| 20260510002851 | 7 | 197 | 0.0 | 0.0 | 0.00 | 0.03 | 0.03 | 64 | 1006.3 |
| 20260510001851 | 7 | 197 | 0.0 | 1.6 | 0.00 | 0.03 | 0.03 | 64 | 1006.2 |
| 20260510000851 | 7 | 197 | 0.0 | 1.6 | 0.00 | 0.03 | 0.03 | 64 | 1006.4 |
| 20260509234851 | 7 | 197 | 0.0 | 0.0 | 0.00 | 0.03 | 0.03 | 65 | 1006.4 |
| 20260509232851 | 7 | 197 | 0.0 | 0.0 | 0.00 | 0.03 | 0.03 | 65 | 1006.0 |
| 20260509231850 | 7 | 197 | 0.0 | 1.6 | 0.00 | 0.03 | 0.03 | 65 | 1005.9 |
| 20260509230921 | 7 | 197 | 0.0 | 3.2 | 0.00 | 0.03 | 0.03 | 66 | 1005.8 |
| 20260509225851 | 7 | 197 | 0.0 | 0.0 | 0.00 | 0.03 | 0.03 | 66 | 1005.9 |
| 20260509222851 | 7 | 197 | 0.0 | 1.6 | 0.03 | 0.03 | 0.03 | 67 | 1005.4 |
| 20260509221851 | 7 | 197 | 0.0 | 3.2 | 0.03 | 0.03 | 0.03 | 68 | 1005.4 |
| 20260509215851 | 7 | 197 | 0.0 | 1.6 | 0.03 | 0.03 | 0.03 | 69 | 1005.6 |
| 20260509214851 | 7 | 197 | 0.0 | 0.0 | 0.03 | 0.03 | 0.03 | 70 | 1005.5 |
| 20260509213850 | 7 | 197 | 0.0 | 1.6 | 0.00 | 0.00 | 0.00 | 71 | 1005.6 |
| 20260509211850 | 8 | 197 | 0.0 | 0.0 | 0.00 | 0.00 | 0.00 | 72 | 1005.7 |
| 20260509210850 | 8 | 197 | 0.0 | 1.6 | 0.00 | 0.00 | 0.00 | 74 | 1005.8 |
| 20260509205850 | 8 | 197 | 0.0 | 1.6 | 0.00 | 0.00 | 0.00 | 75 | 1005.9 |
| 20260509204850 | 8 | 197 | 1.6 | 3.2 | 0.00 | 0.00 | 0.00 | 76 | 1005.8 |
| 20260509203850 | 8 | 200 | 1.6 | 3.2 | 0.00 | 0.00 | 0.00 | 76 | 1005.8 |
| 20260509201851 | 8 | 209 | 0.0 | 6.4 | 0.00 | 0.00 | 0.00 | 77 | 1006.0 |
| 20260509195850 | 8 | 287 | 3.2 | 8.0 | 0.00 | 0.00 | 0.00 | 77 | 1006.1 |
| 20260509194850 | 8 | 129 | 0.0 | 6.4 | 0.00 | 0.00 | 0.00 | 77 | 1006.1 |
| 20260509193850 | 7 | 146 | 0.0 | 8.0 | 0.00 | 0.00 | 0.00 | 77 | 1006.3 |
| 20260509192850 | 7 | 155 | 0.0 | 3.2 | 0.00 | 0.00 | 0.00 | 77 | 1006.4 |
| 20260509190850 | 8 | 128 | 0.0 | 1.6 | 0.00 | 0.00 | 0.00 | 77 | 1006.3 |
| 20260509185850 | 8 | 128 | 0.0 | 6.4 | 0.00 | 0.00 | 0.00 | 77 | 1006.4 |
| 20260509184851 | 8 | 219 | 0.0 | 4.8 | 0.00 | 0.00 | 0.00 | 77 | 1006.5 |
| 20260509183851 | 8 | 178 | 0.0 | 6.4 | 0.00 | 0.00 | 0.00 | 77 | 1006.6 |
| 20260509181851 | 8 | 112 | 1.6 | 8.0 | 0.00 | 0.00 | 0.00 | 77 | 1006.7 |
| 20260509180850 | 8 | 150 | 0.0 | 4.8 | 0.00 | 0.00 | 0.00 | 77 | 1006.7 |
| 20260509175851 | 8 | 93 | 0.0 | 8.0 | 0.00 | 0.00 | 0.00 | 77 | 1006.8 |
| 20260509174951 | 8 | 213 | 0.0 | 4.8 | 0.00 | 0.00 | 0.00 | 77 | 1006.9 |
| 20260509172851 | 8 | 217 | 0.0 | 3.2 | 0.00 | 0.00 | 0.00 | 77 | 1007.0 |
| 20260509171850 | 7 | 227 | 0.0 | 3.2 | 0.00 | 0.00 | 0.00 | 77 | 1007.1 |
| 20260509165850 | 7 | 227 | 3.2 | 3.2 | 0.00 | 0.00 | 0.00 | 77 | 1007.2 |
| 20260509164920 | 7 | 227 | 0.0 | 4.8 | 0.00 | 0.00 | 0.00 | 77 | 1007.5 |
| 20260509155850 | 8 | 236 | 0.0 | 6.4 | 0.00 | 0.00 | 0.00 | 75 | 1008.1 |
| 20260509154850 | 8 | 229 | 0.0 | 6.4 | 0.00 | 0.00 | 0.00 | 73 | 1008.4 |
| 20260509153850 | 8 | 144 | 3.2 | 8.0 | 0.00 | 0.00 | 0.00 | 71 | 1008.4 |
| 20260509152850 | 8 | 129 | 1.6 | 11.3 | 0.00 | 0.00 | 0.00 | 71 | 1008.3 |
| 20260509151849 | 8 | 192 | 0.0 | 6.4 | 0.00 | 0.00 | 0.00 | 70 | 1008.4 |
| 20260509145850 | 8 | 161 | 0.0 | 8.0 | 0.00 | 0.00 | 0.00 | 69 | 1008.5 |
| 20260509142850 | 8 | 99 | 3.2 | 14.5 | 0.00 | 0.00 | 0.00 | 66 | 1008.6 |
| 20260509141850 | 8 | 127 | 4.8 | 11.3 | 0.00 | 0.00 | 0.00 | 65 | 1008.7 |
| 20260509135850 | 8 | 298 | 0.0 | 1.6 | 0.00 | 0.00 | 0.00 | 61 | 1008.7 |
| 20260509134850 | 7 | 298 | 0.0 | 4.8 | 0.00 | 0.00 | 0.00 | 61 | 1008.8 |
| 20260509133850 | 7 | 313 | 3.2 | 4.8 | 0.00 | 0.00 | 0.00 | 63 | 1008.8 |
| 20260509132850 | 7 | 235 | 0.0 | 3.2 | 0.00 | 0.00 | 0.00 | 63 | 1008.8 |
| 20260509131850 | 7 | 235 | 0.0 | 3.2 | 0.00 | 0.00 | 0.00 | 63 | 1008.8 |
| 20260509125850 | 6 | 106 | 0.0 | 4.8 | 0.00 | 0.00 | 0.00 | 66 | 1009.2 |
| 20260509124849 | 5 | 323 | 0.0 | 0.0 | 0.00 | 0.00 | 0.00 | 69 | 1009.4 |
| 20260509123850 | 5 | 323 | 0.0 | 0.0 | 0.00 | 0.00 | 0.00 | 73 | 1009.3 |
| 20260509122849 | 4 | 323 | 0.0 | 0.0 | 0.00 | 0.00 | 0.00 | 77 | 1009.5 |
| 20260509121850 | 3 | 323 | 0.0 | 0.0 | 0.00 | 0.00 | 0.00 | 78 | 1009.4 |
| 20260509120849 | 2 | 323 | 0.0 | 0.0 | 0.00 | 0.00 | 0.00 | 79 | 1009.4 |
| 20260509115850 | 2 | 323 | 0.0 | 0.0 | 0.00 | 0.00 | 0.00 | 78 | 1009.3 |
| 20260509114850 | 1 | 323 | 0.0 | 0.0 | 0.00 | 0.00 | 0.00 | 78 | 1009.7 |
| 20260509113849 | 0 | 323 | 0.0 | 0.0 | 0.00 | 0.00 | 0.00 | 76 | 1009.7 |
| 20260509111850 | 0 | 323 | 0.0 | 0.0 | 0.00 | 0.00 | 0.00 | 75 | 1009.6 |
| 20260509105849 | -2 | 323 | 0.0 | 1.6 | 0.00 | 0.00 | 0.00 | 73 | 1009.3 |
| 20260509104850 | -2 | 302 | 0.0 | 0.0 | 0.00 | 0.00 | 0.00 | 75 | 1009.5 |
| 20260509103850 | -3 | 302 | 0.0 | 0.0 | 0.00 | 0.00 | 0.00 | 75 | 1009.3 |
| 20260509102849 | -3 | 302 | 0.0 | 0.0 | 0.00 | 0.00 | 0.00 | 76 | 1009.3 |
| 20260509101849 | -3 | 302 | 0.0 | 0.0 | 0.00 | 0.00 | 0.00 | 77 | 1009.3 |
| 20260509100850 | -3 | 302 | 0.0 | 0.0 | 0.00 | 0.00 | 0.00 | 77 | 1009.5 |